Terminal Aerodrome Forecast
Issued by NWS Wilmington, OH

Current Version | Previous Version | Text Only | Print | Product List | Glossary Off
Versions: 1 2 3 4 5 6 7 8 9 10 11 12 13 14 15 16

276
FTUS41 KILN 081127
TAFCMH
TAF
KCMH 081127Z 0812/0912 22007KT P6SM -RA BKN035 OVC120
     FM081500 27008KT P6SM -SHRA BKN025 OVC040
     FM090200 27010KT 5SM -SN BR SCT007 OVC012=

USA.gov is the U.S. government's official web portal to all federal, state and local government web resources and services.